METAR Data
IDs: Format: Raw Decoded Include TAF

Data at: 2150 UTC 20 Nov 2018

KRZL 202135Z AUTO 23012G17KT 10SM OVC027 01/M03 A3020 RMK AO2